Terminal Aerodrome Forecast
Issued by NWS Brownsville, TX

Home | Current Version | Previous Version | Text Only | Print | Product List | Glossary On
Versions: 1 2 3 4 5 6 7 8 9 10 11 12 13 14 15
226
FTUS44 KBRO 300537
TAFMFE
TAF
KMFE 300537Z 3006/3106 14009KT P6SM SCT022
      TEMPO 3006/3010 BKN022
     FM301500 14010G18KT P6SM SKC
     FM301900 14014G22KT P6SM FEW040 SCT060
     FM302300 13009KT P6SM SCT250=

USA.gov is the U.S. government's official web portal to all federal, state and local government web resources and services.